sensor_id;sensor_type;location;lat;lon;timestamp;P1;durP1;ratioP1;P2;durP2;ratioP2
52686;SDS011;38584;49.426;8.396;2023-12-04T00:01:21;30.55;;;17.08;;
52686;SDS011;38584;49.426;8.396;2023-12-04T00:03:47;34.75;;;18.38;;
52686;SDS011;38584;49.426;8.396;2023-12-04T00:06:15;32.75;;;17.02;;
52686;SDS011;38584;49.426;8.396;2023-12-04T00:08:40;30.92;;;16.48;;
52686;SDS011;38584;49.426;8.396;2023-12-04T00:11:09;34.30;;;17.27;;
52686;SDS011;38584;49.426;8.396;2023-12-04T00:13:34;32.45;;;17.20;;
52686;SDS011;38584;49.426;8.396;2023-12-04T00:16:00;31.58;;;16.70;;
52686;SDS011;38584;49.426;8.396;2023-12-04T00:18:31;30.40;;;15.77;;
52686;SDS011;38584;49.426;8.396;2023-12-04T00:21:03;31.73;;;16.90;;
52686;SDS011;38584;49.426;8.396;2023-12-04T00:23:31;32.20;;;17.00;;
52686;SDS011;38584;49.426;8.396;2023-12-04T00:25:57;30.38;;;16.52;;
52686;SDS011;38584;49.426;8.396;2023-12-04T00:28:22;30.25;;;15.90;;
52686;SDS011;38584;49.426;8.396;2023-12-04T00:30:47;30.52;;;16.38;;
52686;SDS011;38584;49.426;8.396;2023-12-04T00:33:13;30.17;;;16.42;;
52686;SDS011;38584;49.426;8.396;2023-12-04T00:35:39;31.90;;;17.33;;
52686;SDS011;38584;49.426;8.396;2023-12-04T00:38:05;31.45;;;16.02;;
52686;SDS011;38584;49.426;8.396;2023-12-04T00:40:30;33.38;;;16.85;;
52686;SDS011;38584;49.426;8.396;2023-12-04T00:42:58;30.15;;;16.35;;
52686;SDS011;38584;49.426;8.396;2023-12-04T00:45:27;30.30;;;15.43;;
52686;SDS011;38584;49.426;8.396;2023-12-04T00:47:52;33.67;;;17.15;;
52686;SDS011;38584;49.426;8.396;2023-12-04T00:50:17;32.05;;;16.67;;
52686;SDS011;38584;49.426;8.396;2023-12-04T00:52:43;29.48;;;15.57;;
52686;SDS011;38584;49.426;8.396;2023-12-04T00:55:11;31.15;;;15.60;;
52686;SDS011;38584;49.426;8.396;2023-12-04T00:57:51;33.78;;;17.55;;
52686;SDS011;38584;49.426;8.396;2023-12-04T01:00:20;31.42;;;16.08;;
52686;SDS011;38584;49.426;8.396;2023-12-04T01:02:45;31.27;;;16.45;;
52686;SDS011;38584;49.426;8.396;2023-12-04T01:05:11;31.45;;;16.42;;
52686;SDS011;38584;49.426;8.396;2023-12-04T01:07:36;29.48;;;16.80;;
52686;SDS011;38584;49.426;8.396;2023-12-04T01:10:01;31.98;;;16.02;;
52686;SDS011;38584;49.426;8.396;2023-12-04T01:12:30;30.75;;;16.27;;
52686;SDS011;38584;49.426;8.396;2023-12-04T01:14:55;29.48;;;15.38;;
52686;SDS011;38584;49.426;8.396;2023-12-04T01:17:20;31.33;;;16.40;;
52686;SDS011;38584;49.426;8.396;2023-12-04T01:19:46;31.77;;;15.85;;
52686;SDS011;38584;49.426;8.396;2023-12-04T01:22:11;31.13;;;15.80;;
52686;SDS011;38584;49.426;8.396;2023-12-04T01:24:37;32.83;;;16.48;;
52686;SDS011;38584;49.426;8.396;2023-12-04T01:27:02;28.73;;;14.70;;
52686;SDS011;38584;49.426;8.396;2023-12-04T01:29:27;29.08;;;15.02;;
52686;SDS011;38584;49.426;8.396;2023-12-04T01:31:53;32.17;;;16.60;;
52686;SDS011;38584;49.426;8.396;2023-12-04T01:34:18;28.75;;;15.18;;
52686;SDS011;38584;49.426;8.396;2023-12-04T01:36:46;29.42;;;15.70;;
52686;SDS011;38584;49.426;8.396;2023-12-04T01:39:12;28.27;;;15.73;;
52686;SDS011;38584;49.426;8.396;2023-12-04T01:41:37;29.70;;;15.90;;
52686;SDS011;38584;49.426;8.396;2023-12-04T01:44:02;31.33;;;16.20;;
52686;SDS011;38584;49.426;8.396;2023-12-04T01:46:28;29.70;;;15.35;;
52686;SDS011;38584;49.426;8.396;2023-12-04T01:48:58;29.77;;;15.80;;
52686;SDS011;38584;49.426;8.396;2023-12-04T01:51:23;34.45;;;16.95;;
52686;SDS011;38584;49.426;8.396;2023-12-04T01:53:49;29.98;;;15.90;;
52686;SDS011;38584;49.426;8.396;2023-12-04T01:56:15;32.80;;;16.48;;
52686;SDS011;38584;49.426;8.396;2023-12-04T01:58:41;32.22;;;16.63;;
52686;SDS011;38584;49.426;8.396;2023-12-04T02:01:13;30.77;;;16.15;;
52686;SDS011;38584;49.426;8.396;2023-12-04T02:03:39;30.92;;;15.52;;
52686;SDS011;38584;49.426;8.396;2023-12-04T02:06:05;30.52;;;15.75;;
52686;SDS011;38584;49.426;8.396;2023-12-04T02:08:31;27.83;;;14.70;;
52686;SDS011;38584;49.426;8.396;2023-12-04T02:10:57;29.05;;;14.35;;
52686;SDS011;38584;49.426;8.396;2023-12-04T02:13:22;29.85;;;15.30;;
52686;SDS011;38584;49.426;8.396;2023-12-04T02:15:49;29.38;;;14.73;;
52686;SDS011;38584;49.426;8.396;2023-12-04T02:18:17;29.23;;;13.75;;
52686;SDS011;38584;49.426;8.396;2023-12-04T02:20:43;28.58;;;14.88;;
52686;SDS011;38584;49.426;8.396;2023-12-04T02:23:10;28.52;;;14.43;;
52686;SDS011;38584;49.426;8.396;2023-12-04T02:25:35;27.25;;;13.40;;
52686;SDS011;38584;49.426;8.396;2023-12-04T02:28:01;28.25;;;14.65;;
52686;SDS011;38584;49.426;8.396;2023-12-04T02:30:30;26.20;;;13.05;;
52686;SDS011;38584;49.426;8.396;2023-12-04T02:32:56;24.70;;;12.88;;
52686;SDS011;38584;49.426;8.396;2023-12-04T02:35:23;27.92;;;14.15;;
52686;SDS011;38584;49.426;8.396;2023-12-04T02:37:54;28.60;;;13.43;;
52686;SDS011;38584;49.426;8.396;2023-12-04T02:40:22;26.15;;;13.50;;
52686;SDS011;38584;49.426;8.396;2023-12-04T02:42:49;26.42;;;13.63;;
52686;SDS011;38584;49.426;8.396;2023-12-04T02:45:14;26.73;;;13.70;;
52686;SDS011;38584;49.426;8.396;2023-12-04T02:47:46;25.40;;;14.10;;
52686;SDS011;38584;49.426;8.396;2023-12-04T02:50:11;25.90;;;13.45;;
52686;SDS011;38584;49.426;8.396;2023-12-04T02:52:36;26.65;;;13.50;;
52686;SDS011;38584;49.426;8.396;2023-12-04T02:55:02;26.20;;;13.57;;
52686;SDS011;38584;49.426;8.396;2023-12-04T02:57:33;25.00;;;13.18;;
52686;SDS011;38584;49.426;8.396;2023-12-04T02:59:59;25.88;;;13.15;;
52686;SDS011;38584;49.426;8.396;2023-12-04T03:02:24;25.50;;;12.63;;
52686;SDS011;38584;49.426;8.396;2023-12-04T03:04:49;25.80;;;13.05;;
52686;SDS011;38584;49.426;8.396;2023-12-04T03:07:14;26.27;;;13.20;;
52686;SDS011;38584;49.426;8.396;2023-12-04T03:09:40;27.23;;;13.13;;
52686;SDS011;38584;49.426;8.396;2023-12-04T03:12:05;26.23;;;12.80;;
52686;SDS011;38584;49.426;8.396;2023-12-04T03:14:31;25.52;;;13.30;;
52686;SDS011;38584;49.426;8.396;2023-12-04T03:16:59;27.63;;;13.50;;
52686;SDS011;38584;49.426;8.396;2023-12-04T03:19:24;26.45;;;13.05;;
52686;SDS011;38584;49.426;8.396;2023-12-04T03:21:49;25.17;;;12.98;;
52686;SDS011;38584;49.426;8.396;2023-12-04T03:24:20;25.52;;;13.15;;
52686;SDS011;38584;49.426;8.396;2023-12-04T03:26:46;24.52;;;12.15;;
52686;SDS011;38584;49.426;8.396;2023-12-04T03:29:11;24.15;;;12.63;;
52686;SDS011;38584;49.426;8.396;2023-12-04T03:31:39;24.75;;;12.57;;
52686;SDS011;38584;49.426;8.396;2023-12-04T03:34:05;23.17;;;12.27;;
52686;SDS011;38584;49.426;8.396;2023-12-04T03:36:30;23.73;;;12.07;;
52686;SDS011;38584;49.426;8.396;2023-12-04T03:38:58;24.50;;;12.73;;
52686;SDS011;38584;49.426;8.396;2023-12-04T03:41:24;23.98;;;12.52;;
52686;SDS011;38584;49.426;8.396;2023-12-04T03:43:49;26.83;;;13.18;;
52686;SDS011;38584;49.426;8.396;2023-12-04T03:46:14;24.92;;;12.20;;
52686;SDS011;38584;49.426;8.396;2023-12-04T03:48:40;22.85;;;12.57;;
52686;SDS011;38584;49.426;8.396;2023-12-04T03:51:05;23.73;;;12.30;;
52686;SDS011;38584;49.426;8.396;2023-12-04T03:53:31;24.02;;;12.45;;
52686;SDS011;38584;49.426;8.396;2023-12-04T03:55:59;24.25;;;12.02;;
52686;SDS011;38584;49.426;8.396;2023-12-04T03:58:24;24.25;;;12.18;;
52686;SDS011;38584;49.426;8.396;2023-12-04T04:00:53;22.45;;;11.50;;
52686;SDS011;38584;49.426;8.396;2023-12-04T04:03:18;23.20;;;12.15;;
52686;SDS011;38584;49.426;8.396;2023-12-04T04:05:47;25.20;;;11.82;;
52686;SDS011;38584;49.426;8.396;2023-12-04T04:08:15;25.45;;;12.57;;
52686;SDS011;38584;49.426;8.396;2023-12-04T04:10:40;24.27;;;12.10;;
52686;SDS011;38584;49.426;8.396;2023-12-04T04:13:06;23.52;;;12.15;;
52686;SDS011;38584;49.426;8.396;2023-12-04T04:15:31;24.30;;;12.00;;
52686;SDS011;38584;49.426;8.396;2023-12-04T04:17:56;25.52;;;12.40;;
52686;SDS011;38584;49.426;8.396;2023-12-04T04:20:22;25.15;;;12.68;;
52686;SDS011;38584;49.426;8.396;2023-12-04T04:22:47;22.08;;;10.63;;
52686;SDS011;38584;49.426;8.396;2023-12-04T04:25:13;22.58;;;11.60;;
52686;SDS011;38584;49.426;8.396;2023-12-04T04:27:41;25.27;;;12.32;;
52686;SDS011;38584;49.426;8.396;2023-12-04T04:30:07;24.35;;;12.18;;
52686;SDS011;38584;49.426;8.396;2023-12-04T04:32:33;26.05;;;12.93;;
52686;SDS011;38584;49.426;8.396;2023-12-04T04:34:58;26.85;;;13.68;;
52686;SDS011;38584;49.426;8.396;2023-12-04T04:37:24;27.30;;;13.40;;
52686;SDS011;38584;49.426;8.396;2023-12-04T04:39:49;26.38;;;13.00;;
52686;SDS011;38584;49.426;8.396;2023-12-04T04:42:17;26.23;;;13.15;;
52686;SDS011;38584;49.426;8.396;2023-12-04T04:44:52;25.33;;;13.40;;
52686;SDS011;38584;49.426;8.396;2023-12-04T04:47:17;26.38;;;13.98;;
52686;SDS011;38584;49.426;8.396;2023-12-04T04:49:42;30.20;;;13.75;;
52686;SDS011;38584;49.426;8.396;2023-12-04T04:52:08;27.33;;;14.13;;
52686;SDS011;38584;49.426;8.396;2023-12-04T04:54:33;26.48;;;13.85;;
52686;SDS011;38584;49.426;8.396;2023-12-04T04:56:58;28.00;;;13.70;;
52686;SDS011;38584;49.426;8.396;2023-12-04T04:59:35;29.52;;;13.85;;
52686;SDS011;38584;49.426;8.396;2023-12-04T05:02:00;25.58;;;13.02;;
52686;SDS011;38584;49.426;8.396;2023-12-04T05:04:26;28.95;;;14.43;;
52686;SDS011;38584;49.426;8.396;2023-12-04T05:06:51;24.83;;;13.88;;
52686;SDS011;38584;49.426;8.396;2023-12-04T05:09:19;25.90;;;14.35;;
52686;SDS011;38584;49.426;8.396;2023-12-04T05:11:45;26.88;;;13.95;;
52686;SDS011;38584;49.426;8.396;2023-12-04T05:14:10;27.63;;;14.48;;
52686;SDS011;38584;49.426;8.396;2023-12-04T05:16:35;28.83;;;14.50;;
52686;SDS011;38584;49.426;8.396;2023-12-04T05:19:01;30.45;;;15.35;;
52686;SDS011;38584;49.426;8.396;2023-12-04T05:21:26;33.75;;;17.25;;
52686;SDS011;38584;49.426;8.396;2023-12-04T05:23:51;34.45;;;17.63;;
52686;SDS011;38584;49.426;8.396;2023-12-04T05:26:17;40.47;;;19.10;;
52686;SDS011;38584;49.426;8.396;2023-12-04T05:28:42;36.00;;;18.08;;
52686;SDS011;38584;49.426;8.396;2023-12-04T05:31:10;33.38;;;17.35;;
52686;SDS011;38584;49.426;8.396;2023-12-04T05:33:36;28.30;;;14.18;;
52686;SDS011;38584;49.426;8.396;2023-12-04T05:36:01;34.78;;;14.52;;
52686;SDS011;38584;49.426;8.396;2023-12-04T05:38:26;27.45;;;14.38;;
52686;SDS011;38584;49.426;8.396;2023-12-04T05:40:52;31.65;;;15.55;;
52686;SDS011;38584;49.426;8.396;2023-12-04T05:43:17;28.42;;;14.50;;
52686;SDS011;38584;49.426;8.396;2023-12-04T05:45:48;29.10;;;14.40;;
52686;SDS011;38584;49.426;8.396;2023-12-04T05:48:13;28.38;;;14.70;;
52686;SDS011;38584;49.426;8.396;2023-12-04T05:50:38;28.42;;;15.05;;
52686;SDS011;38584;49.426;8.396;2023-12-04T05:53:06;30.92;;;15.60;;
52686;SDS011;38584;49.426;8.396;2023-12-04T05:55:33;28.50;;;15.15;;
52686;SDS011;38584;49.426;8.396;2023-12-04T05:57:58;30.05;;;15.45;;
52686;SDS011;38584;49.426;8.396;2023-12-04T06:00:30;29.40;;;15.13;;
52686;SDS011;38584;49.426;8.396;2023-12-04T06:02:58;29.60;;;15.20;;
52686;SDS011;38584;49.426;8.396;2023-12-04T06:05:27;28.77;;;15.15;;
52686;SDS011;38584;49.426;8.396;2023-12-04T06:07:53;28.20;;;15.48;;
52686;SDS011;38584;49.426;8.396;2023-12-04T06:10:21;27.90;;;14.45;;
52686;SDS011;38584;49.426;8.396;2023-12-04T06:12:53;26.92;;;14.65;;
52686;SDS011;38584;49.426;8.396;2023-12-04T06:15:27;27.15;;;14.45;;
52686;SDS011;38584;49.426;8.396;2023-12-04T06:17:58;28.98;;;14.30;;
52686;SDS011;38584;49.426;8.396;2023-12-04T06:20:23;28.38;;;14.50;;
52686;SDS011;38584;49.426;8.396;2023-12-04T06:22:55;26.25;;;13.63;;
52686;SDS011;38584;49.426;8.396;2023-12-04T06:25:20;27.52;;;12.93;;
52686;SDS011;38584;49.426;8.396;2023-12-04T06:27:49;24.15;;;11.43;;
52686;SDS011;38584;49.426;8.396;2023-12-04T06:30:16;24.92;;;12.65;;
52686;SDS011;38584;49.426;8.396;2023-12-04T06:32:42;25.67;;;12.93;;
52686;SDS011;38584;49.426;8.396;2023-12-04T06:35:08;25.55;;;12.57;;
52686;SDS011;38584;49.426;8.396;2023-12-04T06:37:34;25.45;;;12.98;;
52686;SDS011;38584;49.426;8.396;2023-12-04T06:40:05;27.15;;;13.55;;
52686;SDS011;38584;49.426;8.396;2023-12-04T06:42:33;26.70;;;13.20;;
52686;SDS011;38584;49.426;8.396;2023-12-04T06:45:02;28.23;;;13.60;;
52686;SDS011;38584;49.426;8.396;2023-12-04T06:47:34;27.40;;;12.38;;
52686;SDS011;38584;49.426;8.396;2023-12-04T06:49:59;27.40;;;12.57;;
52686;SDS011;38584;49.426;8.396;2023-12-04T06:52:25;24.25;;;12.25;;
52686;SDS011;38584;49.426;8.396;2023-12-04T06:54:50;25.02;;;12.70;;
52686;SDS011;38584;49.426;8.396;2023-12-04T06:57:16;25.23;;;13.00;;
52686;SDS011;38584;49.426;8.396;2023-12-04T06:59:41;27.75;;;12.27;;
52686;SDS011;38584;49.426;8.396;2023-12-04T07:02:07;25.70;;;11.35;;
52686;SDS011;38584;49.426;8.396;2023-12-04T07:04:35;25.92;;;12.55;;
52686;SDS011;38584;49.426;8.396;2023-12-04T07:07:01;22.25;;;11.82;;
52686;SDS011;38584;49.426;8.396;2023-12-04T07:09:32;26.45;;;12.90;;
52686;SDS011;38584;49.426;8.396;2023-12-04T07:11:59;24.42;;;12.73;;
52686;SDS011;38584;49.426;8.396;2023-12-04T07:14:24;24.45;;;11.63;;
52686;SDS011;38584;49.426;8.396;2023-12-04T07:16:50;27.25;;;12.27;;
52686;SDS011;38584;49.426;8.396;2023-12-04T07:19:18;23.55;;;11.68;;
52686;SDS011;38584;49.426;8.396;2023-12-04T07:21:43;22.63;;;11.15;;
52686;SDS011;38584;49.426;8.396;2023-12-04T07:24:12;25.45;;;12.13;;
52686;SDS011;38584;49.426;8.396;2023-12-04T07:26:37;23.45;;;11.68;;
52686;SDS011;38584;49.426;8.396;2023-12-04T07:29:03;22.92;;;11.32;;
52686;SDS011;38584;49.426;8.396;2023-12-04T07:31:28;22.52;;;10.93;;
52686;SDS011;38584;49.426;8.396;2023-12-04T07:33:54;23.85;;;11.82;;
52686;SDS011;38584;49.426;8.396;2023-12-04T07:36:19;23.23;;;11.55;;
52686;SDS011;38584;49.426;8.396;2023-12-04T07:38:48;22.45;;;11.38;;
52686;SDS011;38584;49.426;8.396;2023-12-04T07:41:17;23.50;;;11.80;;
52686;SDS011;38584;49.426;8.396;2023-12-04T07:43:43;23.25;;;11.48;;
52686;SDS011;38584;49.426;8.396;2023-12-04T07:46:14;23.73;;;11.80;;
52686;SDS011;38584;49.426;8.396;2023-12-04T07:48:39;22.70;;;10.90;;
52686;SDS011;38584;49.426;8.396;2023-12-04T07:51:05;22.40;;;11.50;;
52686;SDS011;38584;49.426;8.396;2023-12-04T07:53:31;21.75;;;11.05;;
52686;SDS011;38584;49.426;8.396;2023-12-04T07:55:57;23.05;;;11.80;;
52686;SDS011;38584;49.426;8.396;2023-12-04T07:58:28;23.35;;;11.90;;
52686;SDS011;38584;49.426;8.396;2023-12-04T08:00:54;23.83;;;11.48;;
52686;SDS011;38584;49.426;8.396;2023-12-04T08:03:22;23.27;;;11.98;;
52686;SDS011;38584;49.426;8.396;2023-12-04T08:05:48;25.25;;;12.38;;
52686;SDS011;38584;49.426;8.396;2023-12-04T08:08:15;22.85;;;11.20;;
52686;SDS011;38584;49.426;8.396;2023-12-04T08:10:41;24.27;;;11.75;;
52686;SDS011;38584;49.426;8.396;2023-12-04T08:13:19;27.35;;;12.43;;
52686;SDS011;38584;49.426;8.396;2023-12-04T08:15:44;22.23;;;11.50;;
52686;SDS011;38584;49.426;8.396;2023-12-04T08:18:09;21.00;;;10.90;;
52686;SDS011;38584;49.426;8.396;2023-12-04T08:20:35;23.10;;;11.55;;
52686;SDS011;38584;49.426;8.396;2023-12-04T08:23:00;21.92;;;11.18;;
52686;SDS011;38584;49.426;8.396;2023-12-04T08:25:28;20.73;;;10.68;;
52686;SDS011;38584;49.426;8.396;2023-12-04T08:27:53;24.17;;;11.25;;
52686;SDS011;38584;49.426;8.396;2023-12-04T08:30:18;21.80;;;10.95;;
52686;SDS011;38584;49.426;8.396;2023-12-04T08:32:52;24.35;;;10.65;;
52686;SDS011;38584;49.426;8.396;2023-12-04T08:35:18;21.42;;;9.93;;
52686;SDS011;38584;49.426;8.396;2023-12-04T08:37:43;21.35;;;9.70;;
52686;SDS011;38584;49.426;8.396;2023-12-04T08:40:09;19.55;;;9.30;;
52686;SDS011;38584;49.426;8.396;2023-12-04T08:42:35;18.35;;;8.48;;
52686;SDS011;38584;49.426;8.396;2023-12-04T08:45:00;20.15;;;9.13;;
52686;SDS011;38584;49.426;8.396;2023-12-04T08:47:26;20.75;;;9.80;;
52686;SDS011;38584;49.426;8.396;2023-12-04T08:49:51;21.00;;;9.75;;
52686;SDS011;38584;49.426;8.396;2023-12-04T08:52:16;17.98;;;9.30;;
52686;SDS011;38584;49.426;8.396;2023-12-04T08:54:44;18.30;;;9.40;;
52686;SDS011;38584;49.426;8.396;2023-12-04T08:57:10;22.60;;;8.98;;
52686;SDS011;38584;49.426;8.396;2023-12-04T08:59:35;22.85;;;9.90;;
52686;SDS011;38584;49.426;8.396;2023-12-04T09:02:01;21.85;;;9.55;;
52686;SDS011;38584;49.426;8.396;2023-12-04T09:04:35;19.60;;;9.13;;
52686;SDS011;38584;49.426;8.396;2023-12-04T09:07:00;20.77;;;8.82;;
52686;SDS011;38584;49.426;8.396;2023-12-04T09:09:26;18.77;;;9.23;;
52686;SDS011;38584;49.426;8.396;2023-12-04T09:11:51;20.90;;;8.52;;
52686;SDS011;38584;49.426;8.396;2023-12-04T09:14:16;20.52;;;8.95;;
52686;SDS011;38584;49.426;8.396;2023-12-04T09:16:45;18.25;;;8.60;;
52686;SDS011;38584;49.426;8.396;2023-12-04T09:19:13;20.40;;;8.88;;
52686;SDS011;38584;49.426;8.396;2023-12-04T09:21:38;28.45;;;9.80;;
52686;SDS011;38584;49.426;8.396;2023-12-04T09:24:04;20.17;;;8.90;;
52686;SDS011;38584;49.426;8.396;2023-12-04T09:26:29;18.48;;;8.98;;
52686;SDS011;38584;49.426;8.396;2023-12-04T09:28:58;19.77;;;9.65;;
52686;SDS011;38584;49.426;8.396;2023-12-04T09:31:23;18.13;;;8.80;;
52686;SDS011;38584;49.426;8.396;2023-12-04T09:33:51;21.00;;;9.20;;
52686;SDS011;38584;49.426;8.396;2023-12-04T09:36:17;19.25;;;8.52;;
52686;SDS011;38584;49.426;8.396;2023-12-04T09:38:43;18.88;;;8.52;;
52686;SDS011;38584;49.426;8.396;2023-12-04T09:41:08;22.13;;;10.27;;
52686;SDS011;38584;49.426;8.396;2023-12-04T09:43:34;18.85;;;9.18;;
52686;SDS011;38584;49.426;8.396;2023-12-04T09:45:59;19.35;;;8.13;;
52686;SDS011;38584;49.426;8.396;2023-12-04T09:48:26;18.60;;;8.65;;
52686;SDS011;38584;49.426;8.396;2023-12-04T09:50:52;18.48;;;8.20;;
52686;SDS011;38584;49.426;8.396;2023-12-04T09:53:17;18.75;;;8.60;;
52686;SDS011;38584;49.426;8.396;2023-12-04T09:55:52;20.35;;;9.63;;
52686;SDS011;38584;49.426;8.396;2023-12-04T09:58:19;17.95;;;8.70;;
52686;SDS011;38584;49.426;8.396;2023-12-04T10:00:48;25.20;;;9.68;;
52686;SDS011;38584;49.426;8.396;2023-12-04T10:03:14;22.08;;;9.30;;
52686;SDS011;38584;49.426;8.396;2023-12-04T10:05:43;19.67;;;9.20;;
52686;SDS011;38584;49.426;8.396;2023-12-04T10:08:09;22.40;;;9.85;;
52686;SDS011;38584;49.426;8.396;2023-12-04T10:10:34;21.25;;;9.73;;
52686;SDS011;38584;49.426;8.396;2023-12-04T10:13:00;27.42;;;9.38;;
52686;SDS011;38584;49.426;8.396;2023-12-04T10:15:25;25.00;;;9.95;;
52686;SDS011;38584;49.426;8.396;2023-12-04T10:17:50;22.67;;;9.55;;
52686;SDS011;38584;49.426;8.396;2023-12-04T10:20:17;20.88;;;9.30;;
52686;SDS011;38584;49.426;8.396;2023-12-04T10:23:00;23.00;;;9.95;;
52686;SDS011;38584;49.426;8.396;2023-12-04T10:25:28;20.40;;;9.75;;
52686;SDS011;38584;49.426;8.396;2023-12-04T10:27:54;19.80;;;9.60;;
52686;SDS011;38584;49.426;8.396;2023-12-04T10:30:33;27.02;;;10.07;;
52686;SDS011;38584;49.426;8.396;2023-12-04T10:32:59;24.08;;;10.13;;
52686;SDS011;38584;49.426;8.396;2023-12-04T10:35:28;20.25;;;10.23;;
52686;SDS011;38584;49.426;8.396;2023-12-04T10:37:55;22.08;;;10.38;;
52686;SDS011;38584;49.426;8.396;2023-12-04T10:40:24;20.05;;;9.88;;
52686;SDS011;38584;49.426;8.396;2023-12-04T10:45:38;21.17;;;10.65;;
52686;SDS011;38584;49.426;8.396;2023-12-04T10:48:04;22.60;;;9.98;;
52686;SDS011;38584;49.426;8.396;2023-12-04T10:50:36;20.42;;;10.93;;
52686;SDS011;38584;49.426;8.396;2023-12-04T10:53:11;23.30;;;11.35;;
52686;SDS011;38584;49.426;8.396;2023-12-04T10:55:43;23.90;;;10.80;;
52686;SDS011;38584;49.426;8.396;2023-12-04T10:58:11;20.17;;;10.50;;
52686;SDS011;38584;49.426;8.396;2023-12-04T11:00:39;22.65;;;11.13;;
52686;SDS011;38584;49.426;8.396;2023-12-04T11:05:49;21.08;;;9.98;;
52686;SDS011;38584;49.426;8.396;2023-12-04T11:08:18;21.77;;;10.23;;
52686;SDS011;38584;49.426;8.396;2023-12-04T11:10:50;24.13;;;11.77;;
52686;SDS011;38584;49.426;8.396;2023-12-04T11:13:28;22.45;;;11.35;;
52686;SDS011;38584;49.426;8.396;2023-12-04T11:15:56;21.48;;;10.73;;
52686;SDS011;38584;49.426;8.396;2023-12-04T11:18:26;23.38;;;12.13;;
52686;SDS011;38584;49.426;8.396;2023-12-04T11:21:00;24.50;;;12.25;;
52686;SDS011;38584;49.426;8.396;2023-12-04T11:23:29;22.83;;;12.30;;
52686;SDS011;38584;49.426;8.396;2023-12-04T11:25:59;23.23;;;11.95;;
52686;SDS011;38584;49.426;8.396;2023-12-04T11:28:25;24.70;;;12.23;;
52686;SDS011;38584;49.426;8.396;2023-12-04T11:30:55;24.58;;;12.55;;
52686;SDS011;38584;49.426;8.396;2023-12-04T11:33:21;25.55;;;13.25;;
52686;SDS011;38584;49.426;8.396;2023-12-04T11:35:46;25.08;;;12.73;;
52686;SDS011;38584;49.426;8.396;2023-12-04T11:38:15;22.17;;;11.35;;
52686;SDS011;38584;49.426;8.396;2023-12-04T11:40:41;23.20;;;12.43;;
52686;SDS011;38584;49.426;8.396;2023-12-04T11:43:25;22.60;;;12.02;;
52686;SDS011;38584;49.426;8.396;2023-12-04T11:45:52;23.30;;;12.27;;
52686;SDS011;38584;49.426;8.396;2023-12-04T11:48:22;23.63;;;11.43;;
52686;SDS011;38584;49.426;8.396;2023-12-04T11:50:48;22.58;;;12.30;;
52686;SDS011;38584;49.426;8.396;2023-12-04T11:53:21;23.92;;;11.40;;
52686;SDS011;38584;49.426;8.396;2023-12-04T11:55:47;24.88;;;11.80;;
52686;SDS011;38584;49.426;8.396;2023-12-04T11:58:12;21.88;;;11.88;;
52686;SDS011;38584;49.426;8.396;2023-12-04T12:00:38;23.70;;;10.70;;
52686;SDS011;38584;49.426;8.396;2023-12-04T12:03:04;22.35;;;11.38;;
52686;SDS011;38584;49.426;8.396;2023-12-04T12:05:35;23.40;;;11.65;;
52686;SDS011;38584;49.426;8.396;2023-12-04T12:08:04;26.42;;;11.43;;
52686;SDS011;38584;49.426;8.396;2023-12-04T12:10:33;21.60;;;11.35;;
52686;SDS011;38584;49.426;8.396;2023-12-04T12:12:59;20.25;;;11.23;;
52686;SDS011;38584;49.426;8.396;2023-12-04T12:15:27;23.52;;;12.32;;
52686;SDS011;38584;49.426;8.396;2023-12-04T12:17:53;27.00;;;14.38;;
52686;SDS011;38584;49.426;8.396;2023-12-04T12:20:18;25.83;;;13.82;;
52686;SDS011;38584;49.426;8.396;2023-12-04T12:22:45;26.48;;;13.48;;
52686;SDS011;38584;49.426;8.396;2023-12-04T12:25:11;24.83;;;11.88;;
52686;SDS011;38584;49.426;8.396;2023-12-04T12:27:37;24.33;;;12.57;;
52686;SDS011;38584;49.426;8.396;2023-12-04T12:30:03;25.45;;;11.93;;
52686;SDS011;38584;49.426;8.396;2023-12-04T12:32:30;26.45;;;11.55;;
52686;SDS011;38584;49.426;8.396;2023-12-04T12:34:56;22.15;;;11.32;;
52686;SDS011;38584;49.426;8.396;2023-12-04T12:37:22;22.30;;;11.77;;
52686;SDS011;38584;49.426;8.396;2023-12-04T12:39:47;23.90;;;11.77;;
52686;SDS011;38584;49.426;8.396;2023-12-04T12:42:23;25.52;;;12.18;;
52686;SDS011;38584;49.426;8.396;2023-12-04T12:44:54;24.40;;;11.95;;
52686;SDS011;38584;49.426;8.396;2023-12-04T12:47:21;23.75;;;12.63;;
52686;SDS011;38584;49.426;8.396;2023-12-04T12:49:46;23.80;;;12.52;;
52686;SDS011;38584;49.426;8.396;2023-12-04T12:52:12;25.60;;;13.13;;
52686;SDS011;38584;49.426;8.396;2023-12-04T12:54:38;27.02;;;13.50;;
52686;SDS011;38584;49.426;8.396;2023-12-04T12:57:04;27.63;;;12.20;;
52686;SDS011;38584;49.426;8.396;2023-12-04T12:59:30;26.75;;;13.50;;
52686;SDS011;38584;49.426;8.396;2023-12-04T13:01:55;26.92;;;14.15;;
52686;SDS011;38584;49.426;8.396;2023-12-04T13:04:25;26.02;;;14.50;;
52686;SDS011;38584;49.426;8.396;2023-12-04T13:06:50;24.90;;;12.77;;
52686;SDS011;38584;49.426;8.396;2023-12-04T13:09:16;26.40;;;13.93;;
52686;SDS011;38584;49.426;8.396;2023-12-04T13:11:46;26.60;;;14.23;;
52686;SDS011;38584;49.426;8.396;2023-12-04T13:14:12;31.52;;;15.40;;
52686;SDS011;38584;49.426;8.396;2023-12-04T13:16:40;25.80;;;13.98;;
52686;SDS011;38584;49.426;8.396;2023-12-04T13:19:09;27.77;;;14.23;;
52686;SDS011;38584;49.426;8.396;2023-12-04T13:21:34;25.45;;;14.07;;
52686;SDS011;38584;49.426;8.396;2023-12-04T13:23:59;27.00;;;14.55;;
52686;SDS011;38584;49.426;8.396;2023-12-04T13:26:25;29.27;;;13.63;;
52686;SDS011;38584;49.426;8.396;2023-12-04T13:28:50;30.27;;;15.15;;
52686;SDS011;38584;49.426;8.396;2023-12-04T13:31:16;28.85;;;14.23;;
52686;SDS011;38584;49.426;8.396;2023-12-04T13:33:41;24.90;;;14.10;;
52686;SDS011;38584;49.426;8.396;2023-12-04T13:36:12;25.60;;;13.93;;
52686;SDS011;38584;49.426;8.396;2023-12-04T13:38:37;29.13;;;14.50;;
52686;SDS011;38584;49.426;8.396;2023-12-04T13:41:02;33.58;;;15.68;;
52686;SDS011;38584;49.426;8.396;2023-12-04T13:43:51;36.28;;;14.40;;
52686;SDS011;38584;49.426;8.396;2023-12-04T13:46:19;30.77;;;15.35;;
52686;SDS011;38584;49.426;8.396;2023-12-04T13:48:45;28.33;;;14.82;;
52686;SDS011;38584;49.426;8.396;2023-12-04T13:51:13;28.23;;;14.60;;
52686;SDS011;38584;49.426;8.396;2023-12-04T13:53:39;32.92;;;14.57;;
52686;SDS011;38584;49.426;8.396;2023-12-04T13:56:09;31.25;;;15.20;;
52686;SDS011;38584;49.426;8.396;2023-12-04T13:58:49;27.45;;;13.98;;
52686;SDS011;38584;49.426;8.396;2023-12-04T14:01:21;30.15;;;14.77;;
52686;SDS011;38584;49.426;8.396;2023-12-04T14:03:54;29.90;;;14.85;;
52686;SDS011;38584;49.426;8.396;2023-12-04T14:06:29;28.08;;;15.15;;
52686;SDS011;38584;49.426;8.396;2023-12-04T14:08:56;26.50;;;14.32;;
52686;SDS011;38584;49.426;8.396;2023-12-04T14:11:22;30.10;;;15.60;;
52686;SDS011;38584;49.426;8.396;2023-12-04T14:13:47;27.25;;;15.52;;
52686;SDS011;38584;49.426;8.396;2023-12-04T14:16:13;29.35;;;15.35;;
52686;SDS011;38584;49.426;8.396;2023-12-04T14:18:38;33.53;;;15.75;;
52686;SDS011;38584;49.426;8.396;2023-12-04T14:21:05;28.92;;;15.35;;
52686;SDS011;38584;49.426;8.396;2023-12-04T14:23:30;34.20;;;17.25;;
52686;SDS011;38584;49.426;8.396;2023-12-04T14:25:55;34.47;;;18.42;;
52686;SDS011;38584;49.426;8.396;2023-12-04T14:28:21;30.67;;;16.00;;